Time;durP1;ratioP1;P1;durP2;ratioP2;P2;SDS_P1;SDS_P2;PMS_P1;PMS_P2;Temp;Humidity;BMP_temperature;BMP_pressure;BME280_temperature;BME280_humidity;BME280_pressure;Samples;Min_cycle;Max_cycle;Signal;HPM_P1;HPM_P2
2023/01/14 00:00:18;;;;;;;19.40;3.88;;;7.40;99.90;;;;;;5035034;28;20032;-68
2023/01/14 00:02:44;;;;;;;9.95;2.47;;;7.30;99.90;;;;;;5034994;28;20494;-66
2023/01/14 00:05:13;;;;;;;10.00;2.47;;;7.30;99.90;;;;;;5018310;28;20068;-67
2023/01/14 00:07:39;;;;;;;0.65;0.13;;;7.20;99.90;;;;;;5015596;28;20034;-65
2023/01/14 00:10:05;;;;;;;12.07;2.08;;;7.20;99.90;;;;;;5017059;28;20080;-66
2023/01/14 00:12:31;;;;;;;0.17;0.17;;;7.10;99.90;;;;;;5024449;28;20040;-64
2023/01/14 00:14:58;;;;;;;6.03;1.90;;;7.10;99.90;;;;;;5034568;28;20045;-66
2023/01/14 00:17:24;;;;;;;5.38;1.55;;;7.10;99.90;;;;;;5034681;28;20036;-67
2023/01/14 00:19:50;;;;;;;8.13;1.23;;;7.20;99.90;;;;;;5034814;28;20104;-68
2023/01/14 00:22:16;;;;;;;0.57;0.45;;;7.30;99.90;;;;;;5034335;28;20041;-65
2023/01/14 00:24:42;;;;;;;7.78;3.13;;;7.20;99.90;;;;;;5034084;28;20393;-68
2023/01/14 00:27:08;;;;;;;6.28;1.98;;;7.10;99.90;;;;;;5033472;28;20033;-67
2023/01/14 00:29:35;;;;;;;9.75;2.88;;;7.10;99.90;;;;;;5034516;28;20030;-66
2023/01/14 00:32:03;;;;;;;19.88;2.55;;;7.10;99.90;;;;;;5034413;28;20024;-65
2023/01/14 00:34:31;;;;;;;8.60;2.30;;;7.10;99.90;;;;;;5034460;28;20147;-67
2023/01/14 00:36:57;;;;;;;20.60;5.38;;;7.10;99.90;;;;;;5032459;28;20037;-64
2023/01/14 00:39:24;;;;;;;6.60;1.80;;;7.00;99.90;;;;;;5034505;28;20029;-65
2023/01/14 00:41:50;;;;;;;15.00;2.58;;;6.90;99.90;;;;;;5034271;28;20029;-67
2023/01/14 00:44:19;;;;;;;11.40;1.92;;;7.00;99.90;;;;;;5033058;28;20018;-65
2023/01/14 00:46:46;;;;;;;12.98;1.67;;;6.90;99.90;;;;;;5032759;28;20140;-66
2023/01/14 00:49:18;;;;;;;6.70;1.77;;;7.00;99.90;;;;;;5034221;28;20018;-65
2023/01/14 00:51:45;;;;;;;9.23;2.60;;;7.10;99.90;;;;;;5033925;28;20313;-68
2023/01/14 00:54:12;;;;;;;9.50;2.92;;;7.10;99.90;;;;;;5034036;28;20033;-64
2023/01/14 00:56:38;;;;;;;4.65;1.50;;;7.00;99.90;;;;;;5032785;28;20041;-65
2023/01/14 00:59:04;;;;;;;9.85;1.90;;;7.00;99.90;;;;;;5034303;28;20492;-65
2023/01/14 01:01:30;;;;;;;12.95;1.77;;;7.00;99.90;;;;;;5032414;28;20036;-65
2023/01/14 01:03:56;;;;;;;13.15;2.55;;;7.00;99.90;;;;;;5034052;28;20021;-65
2023/01/14 01:06:25;;;;;;;7.25;1.33;;;7.00;99.90;;;;;;5033647;28;20087;-66
2023/01/14 01:08:58;;;;;;;12.70;3.20;;;7.00;99.90;;;;;;5032980;28;20017;-68
2023/01/14 01:11:24;;;;;;;12.45;3.53;;;6.90;99.90;;;;;;5049069;28;20088;-64
2023/01/14 01:13:50;;;;;;;9.45;1.65;;;7.00;99.90;;;;;;5033681;28;20022;-65
2023/01/14 01:16:23;;;;;;;3.33;1.00;;;7.00;99.90;;;;;;5033662;28;20041;-65
2023/01/14 01:18:51;;;;;;;3.50;1.65;;;7.00;99.90;;;;;;5033867;28;20113;-65
2023/01/14 01:21:18;;;;;;;0.55;0.55;;;6.80;99.90;;;;;;5032018;28;20041;-66
2023/01/14 01:23:45;;;;;;;2.38;0.50;;;6.90;99.90;;;;;;5024324;28;20030;-64
2023/01/14 01:26:20;;;;;;;0.20;0.20;;;6.90;99.90;;;;;;5013370;28;20029;-65
2023/01/14 01:28:49;;;;;;;4.13;0.95;;;6.90;99.90;;;;;;5013003;28;20034;-67
2023/01/14 01:31:15;;;;;;;0.30;0.30;;;6.90;99.90;;;;;;5014100;28;20072;-68
2023/01/14 01:33:41;;;;;;;6.45;2.40;;;6.80;99.90;;;;;;5015522;28;20117;-65
2023/01/14 01:36:09;;;;;;;4.95;1.15;;;6.90;99.90;;;;;;5014589;28;20483;-65
2023/01/14 01:38:35;;;;;;;34.95;5.40;;;6.80;99.90;;;;;;5014988;28;20059;-69
2023/01/14 01:41:01;;;;;;;12.00;2.33;;;6.80;99.90;;;;;;5032613;28;20035;-67
2023/01/14 01:43:29;;;;;;;2.92;0.88;;;6.70;99.90;;;;;;5033014;28;20028;-69
2023/01/14 01:46:02;;;;;;;0.73;0.63;;;6.70;99.90;;;;;;5032754;28;20493;-67
2023/01/14 01:48:41;;;;;;;4.82;2.00;;;6.60;99.90;;;;;;5031384;28;20029;-66
2023/01/14 01:51:12;;;;;;;0.28;0.25;;;6.60;99.90;;;;;;5031127;28;20024;-65
2023/01/14 01:53:42;;;;;;;0.10;0.10;;;6.70;99.90;;;;;;5032185;28;20033;-66
2023/01/14 01:56:12;;;;;;;0.30;0.22;;;6.70;99.90;;;;;;5015904;28;20038;-67
2023/01/14 01:58:39;;;;;;;1.35;1.13;;;6.70;99.90;;;;;;5031036;28;20041;-65
2023/01/14 02:01:06;;;;;;;1.17;1.00;;;6.80;99.90;;;;;;5024081;28;20042;-65
2023/01/14 02:03:39;;;;;;;7.88;0.63;;;6.70;99.90;;;;;;5026484;28;20088;-66
2023/01/14 02:06:06;;;;;;;5.55;1.85;;;6.70;99.90;;;;;;5013377;28;20029;-65
2023/01/14 02:08:34;;;;;;;1.15;0.45;;;6.70;99.90;;;;;;5014793;28;20029;-65
2023/01/14 02:11:34;;;;;;;1.55;0.85;;;6.70;99.90;;;;;;5028903;28;20037;-66
2023/01/14 02:14:01;;;;;;;6.38;1.15;;;6.80;99.90;;;;;;5035533;28;20029;-65
2023/01/14 02:16:52;;;;;;;6.53;1.67;;;6.80;99.90;;;;;;5030663;28;20510;-66
2023/01/14 02:19:49;;;;;;;2.13;1.25;;;6.70;99.90;;;;;;5028857;28;20026;-65
2023/01/14 02:22:33;;;;;;;2.72;0.65;;;6.80;99.90;;;;;;5030705;28;20021;-64
2023/01/14 02:25:10;;;;;;;2.10;1.35;;;6.80;99.90;;;;;;5027687;28;20075;-67
2023/01/14 02:27:54;;;;;;;25.55;3.63;;;6.90;99.90;;;;;;5026812;28;20430;-66
2023/01/14 02:30:39;;;;;;;4.32;0.52;;;7.00;99.90;;;;;;5039889;28;20022;-66
2023/01/14 02:33:09;;;;;;;12.77;1.58;;;7.00;99.90;;;;;;5025418;28;20048;-66
2023/01/14 02:36:14;;;;;;;6.20;1.38;;;7.10;99.90;;;;;;5024918;28;20022;-64
2023/01/14 02:38:45;;;;;;;6.47;1.58;;;7.20;99.90;;;;;;5031466;28;20494;-65
2023/01/14 02:44:07;;;;;;;1.55;1.30;;;7.20;99.90;;;;;;5029106;28;20026;-66
2023/01/14 02:44:19;;;;;;;3.10;1.75;;;7.10;99.90;;;;;;5030954;28;20022;-65
2023/01/14 02:47:00;;;;;;;8.35;1.20;;;7.10;99.90;;;;;;5038617;28;20025;-66
2023/01/14 02:49:33;;;;;;;4.35;1.80;;;7.20;99.90;;;;;;5045158;28;20029;-65
2023/01/14 02:52:04;;;;;;;0.75;0.73;;;7.20;99.90;;;;;;5028212;28;20072;-67
2023/01/14 02:54:30;;;;;;;1.60;0.47;;;7.10;99.90;;;;;;5048961;28;20033;-66
2023/01/14 02:57:30;;;;;;;0.20;0.20;;;7.10;99.90;;;;;;5033073;28;20053;-66
2023/01/14 03:00:17;;;;;;;5.15;1.77;;;7.20;99.90;;;;;;5043080;28;20022;-66
2023/01/14 03:02:46;;;;;;;3.55;1.58;;;7.20;99.90;;;;;;5034655;28;20029;-65
2023/01/14 03:05:37;;;;;;;7.50;1.02;;;7.20;99.90;;;;;;5034529;28;20075;-65
2023/01/14 03:08:13;;;;;;;0.35;0.30;;;7.20;99.90;;;;;;5045538;28;20018;-65
2023/01/14 03:10:41;;;;;;;;;;;7.20;99.90;;;;;;5032778;28;20017;-65
2023/01/14 03:13:23;;;;;;;11.13;1.75;;;7.10;99.90;;;;;;5034420;28;19934;-65
2023/01/14 03:15:54;;;;;;;1.75;1.45;;;7.10;99.90;;;;;;5033978;28;20022;-66
2023/01/14 03:18:31;;;;;;;6.38;1.60;;;7.10;99.90;;;;;;5035758;28;20104;-66
2023/01/14 03:21:11;;;;;;;16.90;2.75;;;7.20;99.90;;;;;;5033466;28;20025;-65
2023/01/14 03:23:53;;;;;;;27.02;4.18;;;7.10;99.90;;;;;;5033876;28;20538;-66
2023/01/14 03:26:22;;;;;;;7.55;1.88;;;7.10;99.90;;;;;;5033966;28;20028;-66
2023/01/14 03:28:50;;;;;;;18.40;2.47;;;7.10;99.90;;;;;;5033884;28;20029;-65
2023/01/14 03:31:23;;;;;;;0.47;0.47;;;7.10;99.90;;;;;;5019863;28;20381;-66
2023/01/14 03:33:51;;;;;;;;;;;7.10;99.90;;;;;;5014958;28;20026;-64
2023/01/14 03:36:21;;;;;;;16.42;1.00;;;7.00;99.90;;;;;;5032511;28;20012;-63
2023/01/14 03:38:57;;;;;;;12.48;1.90;;;7.00;99.90;;;;;;5017648;28;20532;-64
2023/01/14 03:44:38;;;;;;;9.52;1.00;;;7.10;99.90;;;;;;5035262;28;20034;-64
2023/01/14 03:47:04;;;;;;;6.78;2.28;;;7.10;99.90;;;;;;5033870;28;20037;-65
2023/01/14 03:49:31;;;;;;;0.20;0.13;;;7.10;99.90;;;;;;5035553;28;20026;-63
2023/01/14 03:52:18;;;;;;;12.52;2.53;;;7.10;99.90;;;;;;5035242;28;20387;-65
2023/01/14 03:55:15;;;;;;;4.18;0.20;;;7.00;99.90;;;;;;5035274;28;20029;-65
2023/01/14 03:57:46;;;;;;;6.95;2.38;;;7.00;99.90;;;;;;5030589;28;20064;-64
2023/01/14 04:00:19;;;;;;;0.30;0.30;;;7.00;99.90;;;;;;5034844;28;20394;-67
2023/01/14 04:02:46;;;;;;;4.68;1.88;;;7.00;99.90;;;;;;5034716;28;20029;-64
2023/01/14 04:05:12;;;;;;;8.30;2.50;;;7.00;99.90;;;;;;5034622;28;20036;-66
2023/01/14 04:07:38;;;;;;;16.90;3.40;;;7.00;99.90;;;;;;5035303;28;20028;-64
2023/01/14 04:10:05;;;;;;;7.03;1.65;;;6.90;99.90;;;;;;5035074;28;20394;-66
2023/01/14 04:12:31;;;;;;;1.70;1.23;;;7.00;99.90;;;;;;5035231;28;20032;-67
2023/01/14 04:17:41;;;;;;;8.10;2.38;;;7.10;99.90;;;;;;5022428;28;20398;-65
2023/01/14 04:20:07;;;;;;;14.75;1.40;;;7.20;99.90;;;;;;5034734;28;20030;-64
2023/01/14 04:22:33;;;;;;;1.25;0.70;;;7.10;99.90;;;;;;5034908;28;20499;-63
2023/01/14 04:24:59;;;;;;;2.75;0.93;;;7.20;99.90;;;;;;5034660;28;20068;-66
2023/01/14 04:27:25;;;;;;;2.38;1.80;;;7.20;99.90;;;;;;5050189;28;20072;-64
2023/01/14 04:29:51;;;;;;;2.78;1.45;;;7.20;99.90;;;;;;5034299;28;20052;-65
2023/01/14 04:32:17;;;;;;;0.43;0.43;;;7.20;99.90;;;;;;5034374;28;20033;-64
2023/01/14 04:34:43;;;;;;;7.38;2.00;;;7.20;99.90;;;;;;5034662;28;20040;-64
2023/01/14 04:37:09;;;;;;;1.38;1.25;;;7.20;99.90;;;;;;5034446;28;20033;-64
2023/01/14 04:39:35;;;;;;;1.65;0.73;;;7.20;99.90;;;;;;5033226;28;20022;-64
2023/01/14 04:44:46;;;;;;;5.88;5.18;;;7.30;99.90;;;;;;5033793;28;20473;-65
2023/01/14 04:47:12;;;;;;;9.15;2.33;;;7.30;99.90;;;;;;5033906;28;20386;-66
2023/01/14 04:49:38;;;;;;;10.52;1.33;;;7.30;99.90;;;;;;5033876;28;20041;-65
2023/01/14 04:52:04;;;;;;;15.35;2.72;;;7.30;99.90;;;;;;5033816;28;20063;-66
2023/01/14 04:54:30;;;;;;;6.97;4.25;;;7.20;99.90;;;;;;5038748;23;20045;-65
2023/01/14 04:56:56;;;;;;;24.33;4.68;;;7.30;99.90;;;;;;4993866;28;20034;-69
2023/01/14 04:59:22;;;;;;;0.10;0.10;;;7.30;99.90;;;;;;4994466;28;20026;-68
2023/01/14 05:01:47;;;;;;;9.88;1.98;;;7.30;99.90;;;;;;4993783;28;20054;-65
2023/01/14 05:04:13;;;;;;;18.17;2.88;;;7.40;99.90;;;;;;4994228;28;20080;-66
2023/01/14 05:06:39;;;;;;;7.50;4.47;;;7.40;99.90;;;;;;4980099;28;20035;-67
2023/01/14 05:09:05;;;;;;;2.17;0.85;;;7.40;99.90;;;;;;4974949;28;20027;-69
2023/01/14 05:11:30;;;;;;;11.30;3.42;;;7.50;99.90;;;;;;4974848;28;20031;-65
2023/01/14 05:13:56;;;;;;;3.95;1.13;;;7.50;99.90;;;;;;4975267;28;20026;-68
2023/01/14 05:16:23;;;;;;;7.60;2.00;;;7.40;99.90;;;;;;4976566;28;20470;-65
2023/01/14 05:18:50;;;;;;;16.67;2.78;;;7.50;99.90;;;;;;4977953;28;20507;-68
2023/01/14 05:21:17;;;;;;;7.03;3.10;;;7.50;99.90;;;;;;4975438;28;20027;-69
2023/01/14 05:23:44;;;;;;;0.25;0.25;;;7.50;99.90;;;;;;4975725;28;20035;-68
2023/01/14 05:26:10;;;;;;;0.35;0.20;;;7.50;99.90;;;;;;4975596;28;20034;-68
2023/01/14 05:28:36;;;;;;;2.88;1.25;;;7.40;99.90;;;;;;4974554;28;20037;-67
2023/01/14 05:31:03;;;;;;;4.68;1.58;;;7.40;99.90;;;;;;4976846;28;20043;-65
2023/01/14 05:33:29;;;;;;;27.48;3.13;;;7.40;99.90;;;;;;4974758;28;20038;-65
2023/01/14 05:35:56;;;;;;;5.00;1.13;;;7.40;99.90;;;;;;4974829;28;20403;-66
2023/01/14 05:38:23;;;;;;;0.25;0.22;;;7.50;99.90;;;;;;4973737;28;20022;-68
2023/01/14 05:40:49;;;;;;;3.65;1.20;;;7.50;99.90;;;;;;4974607;28;20045;-68
2023/01/14 05:46:04;;;;;;;4.13;1.13;;;7.60;99.90;;;;;;4973632;28;20038;-65
2023/01/14 05:48:30;;;;;;;3.83;1.00;;;7.60;99.90;;;;;;4974506;28;20169;-67
2023/01/14 05:50:58;;;;;;;25.08;2.97;;;7.50;99.90;;;;;;4987597;28;20113;-66
2023/01/14 05:53:25;;;;;;;1.20;1.10;;;7.50;99.90;;;;;;4983351;28;20115;-66
2023/01/14 05:55:52;;;;;;;6.63;1.48;;;7.50;99.90;;;;;;4976426;28;20166;-66
2023/01/14 05:58:18;;;;;;;13.93;2.22;;;7.60;99.90;;;;;;4977410;28;20027;-66
2023/01/14 06:06:27;;;;;;;10.48;1.90;;;7.40;99.90;;;;;;4983116;28;20045;-65
2023/01/14 06:09:02;;;;;;;10.20;2.83;;;7.50;99.90;;;;;;4978583;28;20030;-66
2023/01/14 06:11:29;;;;;;;13.20;2.53;;;7.50;99.90;;;;;;4981458;28;20066;-67
2023/01/14 06:13:57;;;;;;;2.88;1.02;;;7.40;99.90;;;;;;4976913;28;20022;-66
2023/01/14 06:16:27;;;;;;;5.78;2.05;;;7.50;99.90;;;;;;4974774;28;20608;-66
2023/01/14 06:18:54;;;;;;;8.10;2.47;;;7.40;99.90;;;;;;4990285;28;20041;-66
2023/01/14 06:21:25;;;;;;;9.65;2.83;;;7.40;99.90;;;;;;4993096;28;20014;-66
2023/01/14 06:23:51;;;;;;;13.13;1.52;;;7.40;99.90;;;;;;4974188;28;20042;-66
2023/01/14 06:26:19;;;;;;;9.77;2.67;;;7.40;99.90;;;;;;4992847;28;20026;-66
2023/01/14 06:28:45;;;;;;;0.25;0.17;;;7.40;99.90;;;;;;4981307;28;20027;-66
2023/01/14 06:31:14;;;;;;;8.25;1.08;;;7.40;99.90;;;;;;4977066;28;20038;-66
2023/01/14 06:33:40;;;;;;;7.40;1.10;;;7.50;99.90;;;;;;4975089;28;20125;-66
2023/01/14 06:36:08;;;;;;;4.60;1.13;;;7.50;99.90;;;;;;4975244;28;20104;-66
2023/01/14 06:38:34;;;;;;;15.82;5.47;;;7.50;99.90;;;;;;4974085;28;20030;-66
2023/01/14 06:41:01;;;;;;;1.65;1.17;;;7.50;99.90;;;;;;4973568;28;20038;-66
2023/01/14 06:43:27;;;;;;;4.50;1.67;;;7.50;99.90;;;;;;4974583;28;20038;-67
2023/01/14 06:45:56;;;;;;;10.20;2.15;;;7.70;99.90;;;;;;4977261;28;20022;-67
2023/01/14 06:48:23;;;;;;;1.52;0.65;;;7.60;99.90;;;;;;4986992;28;20466;-67
2023/01/14 06:50:49;;;;;;;0.40;0.40;;;7.70;99.90;;;;;;4974633;28;20128;-66
2023/01/14 06:53:15;;;;;;;2.58;1.13;;;7.70;99.90;;;;;;4977366;28;20050;-66
2023/01/14 06:55:41;;;;;;;1.20;0.93;;;7.70;99.90;;;;;;4974088;28;20129;-66
2023/01/14 06:58:07;;;;;;;16.65;2.63;;;7.70;99.90;;;;;;4977485;28;20022;-65
2023/01/14 07:00:33;;;;;;;1.30;1.20;;;7.70;99.90;;;;;;4981439;28;20030;-66
2023/01/14 07:02:59;;;;;;;3.72;0.98;;;7.70;99.90;;;;;;4978365;28;20073;-66
2023/01/14 07:05:24;;;;;;;1.77;0.98;;;7.70;99.90;;;;;;4988840;28;20054;-67
2023/01/14 07:07:50;;;;;;;11.35;2.13;;;7.80;99.90;;;;;;4974788;28;20030;-67
2023/01/14 07:10:17;;;;;;;1.42;0.88;;;7.80;99.90;;;;;;4976056;28;20023;-67
2023/01/14 07:12:48;;;;;;;1.75;1.00;;;7.80;99.90;;;;;;4974516;28;20031;-66
2023/01/14 07:15:16;;;;;;;0.85;0.82;;;7.90;99.90;;;;;;4974560;28;20023;-67
2023/01/14 07:17:43;;;;;;;6.03;1.88;;;7.90;99.90;;;;;;4983810;28;20379;-66
2023/01/14 07:20:10;;;;;;;3.55;0.80;;;7.90;99.90;;;;;;4973171;28;20031;-67
2023/01/14 07:22:36;;;;;;;1.75;1.55;;;8.00;99.90;;;;;;4977339;28;20082;-67
2023/01/14 07:25:02;;;;;;;8.90;1.77;;;8.00;99.90;;;;;;4973568;28;20575;-66
2023/01/14 07:27:29;;;;;;;11.18;2.53;;;8.10;99.90;;;;;;4973008;28;20070;-66
2023/01/14 07:29:55;;;;;;;5.78;2.50;;;8.10;99.90;;;;;;4981905;28;20046;-66
2023/01/14 07:32:21;;;;;;;2.45;1.55;;;8.10;99.90;;;;;;4988964;28;20018;-66
2023/01/14 07:34:47;;;;;;;3.13;0.93;;;8.20;99.90;;;;;;4976683;28;20031;-67
2023/01/14 07:37:13;;;;;;;4.03;1.92;;;8.20;99.90;;;;;;4976705;28;20376;-67
2023/01/14 07:39:39;;;;;;;4.13;1.23;;;8.20;99.90;;;;;;4980996;28;20031;-67
2023/01/14 07:42:05;;;;;;;1.35;1.23;;;8.30;99.90;;;;;;4978472;28;20034;-67
2023/01/14 07:44:31;;;;;;;3.63;1.17;;;8.30;99.90;;;;;;4979611;28;20408;-66
2023/01/14 07:46:57;;;;;;;14.05;3.00;;;8.40;99.90;;;;;;4986046;28;20030;-66
2023/01/14 07:49:24;;;;;;;13.80;2.90;;;8.40;99.90;;;;;;4995872;28;20152;-66
2023/01/14 07:51:51;;;;;;;4.07;1.65;;;8.50;99.90;;;;;;4994985;28;20657;-66
2023/01/14 07:54:18;;;;;;;2.92;1.02;;;8.50;99.90;;;;;;4995867;28;20124;-66
2023/01/14 07:56:44;;;;;;;3.42;1.27;;;8.50;99.90;;;;;;4994195;28;20049;-66
2023/01/14 07:59:10;;;;;;;4.28;0.85;;;8.50;99.90;;;;;;4995491;28;20023;-66
2023/01/14 08:01:37;;;;;;;0.63;0.63;;;8.60;99.90;;;;;;4994281;28;20084;-66
2023/01/14 08:04:03;;;;;;;5.75;2.42;;;8.60;99.90;;;;;;4995511;28;20023;-66
2023/01/14 08:06:29;;;;;;;5.20;1.60;;;8.60;99.90;;;;;;4995419;28;20109;-66
2023/01/14 08:08:55;;;;;;;7.05;2.00;;;8.60;99.90;;;;;;4995669;28;20053;-66
2023/01/14 08:11:21;;;;;;;3.70;0.88;;;8.60;99.90;;;;;;4995490;28;20029;-66
2023/01/14 08:13:50;;;;;;;13.35;2.95;;;8.60;99.90;;;;;;4995331;28;20391;-66
2023/01/14 08:16:15;;;;;;;18.08;3.33;;;8.70;99.90;;;;;;4994843;28;20089;-66
2023/01/14 08:18:41;;;;;;;12.50;3.55;;;8.70;99.90;;;;;;4993842;28;20056;-66
2023/01/14 08:21:09;;;;;;;14.27;2.65;;;8.80;99.90;;;;;;4994380;28;20053;-66
2023/01/14 08:23:35;;;;;;;1.42;1.00;;;8.80;99.90;;;;;;4994149;28;20113;-66
2023/01/14 08:26:02;;;;;;;4.90;0.77;;;8.80;99.90;;;;;;4977903;28;20022;-65
2023/01/14 08:28:28;;;;;;;7.03;3.08;;;8.70;99.90;;;;;;4977616;28;20022;-66
2023/01/14 08:31:10;;;;;;;13.82;1.33;;;8.80;99.90;;;;;;4978759;28;20034;-66
2023/01/14 08:33:37;;;;;;;2.58;1.23;;;8.80;99.90;;;;;;4982666;28;20022;-66
2023/01/14 08:36:06;;;;;;;5.05;0.73;;;8.80;99.90;;;;;;4976473;28;20049;-66
2023/01/14 08:38:35;;;;;;;6.10;2.53;;;8.80;99.90;;;;;;4976093;28;20031;-66
2023/01/14 08:41:06;;;;;;;1.33;0.98;;;8.80;99.90;;;;;;4977601;28;20019;-65
2023/01/14 08:43:32;;;;;;;4.15;1.05;;;8.80;99.90;;;;;;4973161;28;20030;-66
2023/01/14 08:45:58;;;;;;;5.80;1.42;;;8.80;99.90;;;;;;4975186;28;20030;-67
2023/01/14 08:48:24;;;;;;;2.42;0.70;;;8.90;99.90;;;;;;4977131;28;20023;-66
2023/01/14 08:50:50;;;;;;;2.03;0.93;;;8.90;99.90;;;;;;4984289;28;20034;-66
2023/01/14 08:53:15;;;;;;;1.88;0.30;;;8.90;99.90;;;;;;4979167;28;20054;-67
2023/01/14 08:55:41;;;;;;;12.45;3.50;;;9.00;99.90;;;;;;4982220;28;20493;-67
2023/01/14 08:58:08;;;;;;;1.15;0.30;;;9.00;99.90;;;;;;4980589;28;20077;-66
2023/01/14 09:00:34;;;;;;;3.33;1.25;;;9.00;99.90;;;;;;4991617;28;20024;-66
2023/01/14 09:03:00;;;;;;;0.57;0.57;;;9.00;99.90;;;;;;4980848;28;20494;-66
2023/01/14 09:05:26;;;;;;;5.10;1.80;;;9.10;99.90;;;;;;4990266;28;20023;-66
2023/01/14 09:18:58;;;;;;;6.80;2.00;;;9.20;99.90;;;;;;4985333;28;20502;-66
2023/01/14 09:21:24;;;;;;;1.90;0.85;;;9.20;99.90;;;;;;4989162;28;20150;-66
2023/01/14 09:23:50;;;;;;;3.50;0.80;;;9.30;99.90;;;;;;4990663;28;20161;-65
2023/01/14 09:26:16;;;;;;;3.58;0.73;;;9.20;99.90;;;;;;4981424;28;20101;-68
2023/01/14 09:28:42;;;;;;;2.25;0.82;;;9.30;99.90;;;;;;4989687;28;20029;-67
2023/01/14 09:31:08;;;;;;;1.83;0.75;;;9.30;99.90;;;;;;4977112;28;20472;-68
2023/01/14 09:33:34;;;;;;;0.50;0.50;;;9.30;99.90;;;;;;4977615;28;20034;-68
2023/01/14 09:36:03;;;;;;;3.75;1.02;;;9.30;99.90;;;;;;4978329;28;20081;-66
2023/01/14 09:38:29;;;;;;;3.70;0.95;;;9.30;99.90;;;;;;4975248;28;20031;-66
2023/01/14 09:40:55;;;;;;;14.15;1.40;;;9.40;99.90;;;;;;4979757;28;20074;-67
2023/01/14 09:43:23;;;;;;;6.85;1.42;;;9.40;99.90;;;;;;4992213;28;20387;-68
2023/01/14 09:45:55;;;;;;;4.13;1.20;;;9.50;99.90;;;;;;4979662;28;20373;-66
2023/01/14 09:48:23;;;;;;;2.25;0.88;;;9.50;99.90;;;;;;4983809;28;20039;-67
2023/01/14 09:50:54;;;;;;;3.75;0.73;;;9.60;99.90;;;;;;4985116;28;20932;-66
2023/01/14 09:53:59;;;;;;;2.90;1.23;;;9.60;99.90;;;;;;4986790;28;20031;-67
2023/01/14 09:56:45;;;;;;;0.30;0.30;;;9.60;99.90;;;;;;4977774;28;20050;-66
2023/01/14 09:59:17;;;;;;;2.70;1.02;;;9.70;99.90;;;;;;4978474;28;20023;-66
2023/01/14 10:01:59;;;;;;;0.90;0.40;;;9.60;99.90;;;;;;4981878;28;20034;-68
2023/01/14 10:04:40;;;;;;;0.38;0.38;;;9.70;99.90;;;;;;4990010;28;20328;-66
2023/01/14 10:07:09;;;;;;;0.43;0.40;;;9.70;99.90;;;;;;4990306;28;20034;-69
2023/01/14 10:09:49;;;;;;;4.20;1.10;;;9.80;99.90;;;;;;4991649;28;20026;-68
2023/01/14 10:12:29;;;;;;;1.80;0.80;;;9.70;99.90;;;;;;4992585;28;20165;-66
2023/01/14 10:15:17;;;;;;;7.47;0.80;;;9.80;99.90;;;;;;4991695;28;20034;-68
2023/01/14 10:17:48;;;;;;;7.93;0.77;;;9.80;99.90;;;;;;4992864;28;20046;-68
2023/01/14 10:20:33;;;;;;;1.52;0.80;;;9.80;99.90;;;;;;4993218;28;20031;-68
2023/01/14 10:23:10;;;;;;;16.80;0.88;;;9.80;99.90;;;;;;4992961;28;20038;-67
2023/01/14 10:25:37;;;;;;;5.43;1.25;;;9.80;99.90;;;;;;4989309;28;20104;-67
2023/01/14 10:28:11;;;;;;;1.17;0.57;;;9.80;99.90;;;;;;4993342;28;20034;-66
2023/01/14 10:30:38;;;;;;;2.17;1.10;;;9.80;99.90;;;;;;4988555;28;20113;-69
2023/01/14 10:33:07;;;;;;;4.18;0.65;;;9.90;99.90;;;;;;4992958;28;20105;-67
2023/01/14 10:35:38;;;;;;;5.70;0.98;;;9.90;99.90;;;;;;4992950;28;20078;-68
2023/01/14 10:38:05;;;;;;;3.10;0.77;;;9.90;99.90;;;;;;4992104;28;20030;-66
2023/01/14 10:40:32;;;;;;;3.15;0.75;;;9.90;99.90;;;;;;4992732;28;20371;-69
2023/01/14 10:43:00;;;;;;;0.55;0.47;;;9.90;99.90;;;;;;4991379;28;20022;-68
2023/01/14 10:45:27;;;;;;;3.00;0.98;;;9.90;99.90;;;;;;4992517;28;20031;-67
2023/01/14 10:48:02;;;;;;;2.53;0.55;;;10.00;99.90;;;;;;4991002;28;20050;-67
2023/01/14 10:50:29;;;;;;;1.20;0.60;;;10.00;99.90;;;;;;4993070;28;20114;-68
2023/01/14 10:53:20;;;;;;;4.68;1.48;;;10.00;99.90;;;;;;4991870;28;20017;-68
2023/01/14 10:55:57;;;;;;;13.20;0.73;;;10.10;99.90;;;;;;4992216;28;20062;-66
2023/01/14 10:58:41;;;;;;;1.38;0.50;;;10.10;99.90;;;;;;4992544;28;20045;-66
2023/01/14 11:01:10;;;;;;;3.90;0.30;;;10.10;99.90;;;;;;4991829;28;20041;-68
2023/01/14 11:03:42;;;;;;;0.60;0.45;;;10.20;99.90;;;;;;4992701;28;20077;-68
2023/01/14 11:06:13;;;;;;;3.03;0.47;;;10.20;99.90;;;;;;4992500;28;20033;-67
2023/01/14 11:08:51;;;;;;;0.63;0.47;;;10.20;99.90;;;;;;4989730;28;20030;-68
2023/01/14 11:11:17;;;;;;;0.55;0.55;;;10.20;99.90;;;;;;4979377;28;20030;-68
2023/01/14 11:13:45;;;;;;;0.68;0.47;;;10.20;99.90;;;;;;4982821;28;20023;-66
2023/01/14 11:16:27;;;;;;;0.22;0.22;;;10.20;99.90;;;;;;4994848;28;20030;-67
2023/01/14 11:18:59;;;;;;;0.30;0.30;;;10.20;99.90;;;;;;4995934;28;20027;-69
2023/01/14 11:21:28;;;;;;;1.73;0.80;;;10.30;99.90;;;;;;4995040;28;20117;-69
2023/01/14 11:23:56;;;;;;;5.15;0.80;;;10.30;99.90;;;;;;4996581;28;20022;-69
2023/01/14 11:26:28;;;;;;;1.42;0.98;;;10.30;99.90;;;;;;4995012;28;20038;-68
2023/01/14 11:29:12;;;;;;;0.15;0.15;;;10.40;99.90;;;;;;4993090;28;20019;-68
2023/01/14 11:31:38;;;;;;;0.43;0.43;;;10.40;99.90;;;;;;4995615;28;20030;-68
2023/01/14 11:34:16;;;;;;;0.70;0.70;;;10.40;99.90;;;;;;4995909;28;20467;-68
2023/01/14 11:36:42;;;;;;;0.70;0.57;;;10.40;99.90;;;;;;4993651;28;20046;-67
2023/01/14 11:39:16;;;;;;;0.30;0.30;;;10.40;99.90;;;;;;4990045;28;20014;-67
2023/01/14 11:41:42;;;;;;;3.97;1.13;;;10.30;99.90;;;;;;4994939;28;20027;-67
2023/01/14 11:44:15;;;;;;;1.58;0.68;;;10.40;99.90;;;;;;4994741;28;20486;-67
2023/01/14 11:46:44;;;;;;;0.93;0.70;;;10.40;99.90;;;;;;4995201;28;20471;-66
2023/01/14 11:49:17;;;;;;;2.92;0.63;;;10.40;99.90;;;;;;4995378;28;20043;-65
2023/01/14 11:52:00;;;;;;;3.33;0.85;;;10.50;99.90;;;;;;4995146;28;20125;-66
2023/01/14 11:54:35;;;;;;;13.35;0.52;;;10.50;99.90;;;;;;4991085;28;20057;-67
2023/01/14 11:57:02;;;;;;;2.63;0.40;;;10.50;99.90;;;;;;4995428;28;20043;-67
2023/01/14 11:59:35;;;;;;;2.88;0.52;;;10.50;99.90;;;;;;4993566;28;20065;-66
2023/01/14 12:02:13;;;;;;;1.85;0.30;;;10.50;99.90;;;;;;4995189;28;20092;-66
2023/01/14 12:05:07;;;;;;;0.03;0.03;;;10.60;99.90;;;;;;4980838;28;20042;-66
2023/01/14 12:07:43;;;;;;;0.40;0.20;;;10.60;99.90;;;;;;4982670;28;20146;-68
2023/01/14 12:10:15;;;;;;;1.13;0.73;;;10.60;99.90;;;;;;4993027;28;20031;-68
2023/01/14 12:18:34;;;;;;;3.72;0.75;;;10.70;99.90;;;;;;4994490;28;20022;-67
2023/01/14 12:21:02;;;;;;;3.65;1.13;;;10.70;99.90;;;;;;4987872;28;20081;-69
2023/01/14 12:23:30;;;;;;;0.88;0.50;;;10.70;99.90;;;;;;4987785;28;20113;-67
2023/01/14 12:25:57;;;;;;;3.53;1.25;;;10.80;99.90;;;;;;4992281;28;20038;-68
2023/01/14 12:28:30;;;;;;;3.25;0.85;;;10.90;99.90;;;;;;4985227;28;20110;-68
2023/01/14 12:31:11;;;;;;;5.63;0.95;;;10.90;99.90;;;;;;4992579;28;20026;-67
2023/01/14 12:33:49;;;;;;;1.40;0.28;;;11.00;99.90;;;;;;4994846;28;20070;-69
2023/01/14 12:36:20;;;;;;;3.33;1.40;;;11.00;99.90;;;;;;4994069;28;20042;-68
2023/01/14 12:47:32;;;;;;;4.68;0.73;;;10.90;99.90;;;;;;4994042;28;20398;-67
2023/01/14 12:50:00;;;;;;;0.45;0.30;;;10.90;99.90;;;;;;4993526;28;20066;-66
2023/01/14 12:52:29;;;;;;;0.45;0.45;;;10.90;99.90;;;;;;4993451;28;20026;-67
2023/01/14 12:54:56;;;;;;;0.32;0.32;;;10.90;99.90;;;;;;4992882;28;20029;-66
2023/01/14 12:57:23;;;;;;;1.13;0.55;;;11.00;99.90;;;;;;4994008;28;20399;-68
2023/01/14 13:00:02;;;;;;;3.00;0.80;;;11.00;99.90;;;;;;4994307;28;20053;-68
2023/01/14 13:02:52;;;;;;;4.70;1.13;;;11.10;99.90;;;;;;4993601;28;20026;-67
2023/01/14 13:05:34;;;;;;;0.28;0.28;;;11.00;99.90;;;;;;4992171;28;20030;-67
2023/01/14 13:08:03;;;;;;;6.80;1.33;;;11.10;99.90;;;;;;4993931;28;20085;-67
2023/01/14 13:10:36;;;;;;;0.43;0.40;;;11.00;99.90;;;;;;4994169;28;20627;-66
2023/01/14 13:13:04;;;;;;;1.73;1.00;;;11.10;99.90;;;;;;4993144;28;20030;-66
2023/01/14 13:15:34;;;;;;;1.40;0.65;;;11.10;99.90;;;;;;4991510;28;20023;-66
2023/01/14 13:18:02;;;;;;;2.47;0.88;;;11.10;99.90;;;;;;4989827;28;20053;-66
2023/01/14 13:20:37;;;;;;;3.75;1.08;;;11.20;99.90;;;;;;4993486;28;20026;-66
2023/01/14 13:23:10;;;;;;;4.03;0.98;;;11.10;99.90;;;;;;4993979;28;20498;-67
2023/01/14 13:25:41;;;;;;;1.63;0.88;;;11.10;99.90;;;;;;4993362;28;20530;-68
2023/01/14 13:28:12;;;;;;;3.80;1.05;;;11.20;99.90;;;;;;5002633;28;20497;-67
2023/01/14 13:30:43;;;;;;;0.98;0.95;;;11.20;99.90;;;;;;4997298;28;20088;-68
2023/01/14 13:33:33;;;;;;;2.10;1.02;;;11.30;99.90;;;;;;4993057;28;20483;-68
2023/01/14 13:36:19;;;;;;;3.83;0.85;;;11.30;99.90;;;;;;4993866;28;20097;-69
2023/01/14 13:39:04;;;;;;;0.65;0.65;;;11.20;99.90;;;;;;4993708;28;20034;-69
2023/01/14 13:41:37;;;;;;;0.60;0.30;;;11.30;99.90;;;;;;4985127;28;20030;-67
2023/01/14 13:44:04;;;;;;;1.65;1.17;;;11.20;99.90;;;;;;4993504;28;20106;-66
2023/01/14 13:46:37;;;;;;;1.10;0.73;;;11.20;99.90;;;;;;4985977;28;20037;-66
2023/01/14 13:49:07;;;;;;;1.35;0.80;;;11.20;99.90;;;;;;4974964;28;20141;-69
2023/01/14 13:51:45;;;;;;;1.13;0.63;;;11.20;99.90;;;;;;4976358;28;20109;-69